createdAt,value
2022-10-11T00:02:11.185Z,89.72
2022-10-11T00:04:57.420Z,87.14
2022-10-11T00:07:43.478Z,86.71
2022-10-11T00:10:29.792Z,85.99
2022-10-11T00:13:15.576Z,84.89
2022-10-11T00:16:01.919Z,84.98
2022-10-11T00:18:47.851Z,87.69
2022-10-11T00:21:25.881Z,91.29
2022-10-11T00:24:04.850Z,86.54
2022-10-11T00:26:47.022Z,87.17
2022-10-11T00:29:25.113Z,85.43
2022-10-11T00:32:04.215Z,86.14
2022-10-11T00:34:42.544Z,86.63
2022-10-11T00:37:20.995Z,86.28
2022-10-11T00:40:00.056Z,87.41
2022-10-11T00:42:38.892Z,85.00
2022-10-11T00:45:26.558Z,85.86
2022-10-11T00:48:09.065Z,86.99
2022-10-11T00:50:47.202Z,87.58
2022-10-11T00:53:24.368Z,87.54
2022-10-11T00:56:09.507Z,88.35
2022-10-11T00:58:48.096Z,93.77
2022-10-11T01:01:28.416Z,93.37
2022-10-11T01:04:07.398Z,95.46
2022-10-11T01:06:45.701Z,91.41
2022-10-11T01:09:24.443Z,89.26
2022-10-11T01:12:04.193Z,89.35
2022-10-11T01:14:41.667Z,90.38
2022-10-11T01:17:21.219Z,86.26
2022-10-11T01:20:07.766Z,84.81
2022-10-11T01:22:52.222Z,85.32
2022-10-11T01:25:46.982Z,86.53
2022-10-11T01:28:24.997Z,85.00
2022-10-11T01:31:32.947Z,86.04
2022-10-11T01:34:39.006Z,88.55
2022-10-11T01:37:23.752Z,90.08
2022-10-11T01:40:15.779Z,92.84
2022-10-11T01:42:53.577Z,91.27
2022-10-11T01:45:32.645Z,92.02
2022-10-11T01:48:12.557Z,88.24
2022-10-11T01:50:58.999Z,87.14
2022-10-11T01:53:56.504Z,87.37
2022-10-11T01:56:33.829Z,89.09
2022-10-11T01:59:29.758Z,89.73
2022-10-11T02:02:20.965Z,89.51
2022-10-11T02:04:59.014Z,88.13
2022-10-11T02:07:58.926Z,88.99
2022-10-11T02:10:44.362Z,92.81
2022-10-11T02:13:26.078Z,89.89
2022-10-11T02:16:08.698Z,90.21
2022-10-11T02:18:48.027Z,91.02
2022-10-11T02:21:26.279Z,89.85
2022-10-11T02:24:27.269Z,90.39
2022-10-11T02:27:06.577Z,90.67
2022-10-11T02:29:44.193Z,92.05
2022-10-11T02:32:24.372Z,87.39
2022-10-11T02:35:01.666Z,88.09
2022-10-11T02:37:43.945Z,85.37
2022-10-11T02:40:25.929Z,86.12
2022-10-11T02:43:05.329Z,86.20
2022-10-11T02:45:43.932Z,84.80
2022-10-11T02:48:23.479Z,85.65
2022-10-11T02:51:02.144Z,87.24
2022-10-11T02:53:40.309Z,86.08
2022-10-11T02:56:19.043Z,86.84
2022-10-11T02:58:57.704Z,88.53
2022-10-11T03:01:36.191Z,89.39
2022-10-11T03:04:15.184Z,87.55
2022-10-11T03:06:53.482Z,88.60
2022-10-11T03:09:30.942Z,88.09
2022-10-11T03:12:10.392Z,88.98
2022-10-11T03:14:48.965Z,88.11
2022-10-11T03:17:36.880Z,88.66
2022-10-11T03:20:16.797Z,89.35
2022-10-11T03:22:55.064Z,88.31
2022-10-11T03:25:33.170Z,89.14
2022-10-11T03:28:10.850Z,91.23
2022-10-11T03:30:52.081Z,89.63
2022-10-11T03:33:31.225Z,88.25
2022-10-11T03:36:10.107Z,88.97
2022-10-11T03:38:47.949Z,92.12
2022-10-11T03:41:27.904Z,90.12
2022-10-11T03:44:05.142Z,90.17
2022-10-11T03:46:42.419Z,89.77
2022-10-11T03:49:20.983Z,91.29
2022-10-11T03:51:59.625Z,93.06
2022-10-11T03:54:36.711Z,91.59
2022-10-11T03:57:15.607Z,89.87
2022-10-11T03:59:54.113Z,91.47
2022-10-11T04:02:38.328Z,89.94
2022-10-11T04:05:19.986Z,89.02
2022-10-11T04:07:59.654Z,89.74
2022-10-11T04:10:43.573Z,93.43
2022-10-11T04:13:21.959Z,88.52
2022-10-11T04:16:00.477Z,89.63
2022-10-11T04:18:39.238Z,86.81
2022-10-11T04:21:18.008Z,86.03
2022-10-11T04:23:56.374Z,87.61
2022-10-11T04:26:35.578Z,87.80
2022-10-11T04:29:13.951Z,88.00
2022-10-11T04:31:52.665Z,87.29
2022-10-11T04:34:31.453Z,88.37
2022-10-11T04:37:09.754Z,91.01
2022-10-11T04:39:48.334Z,91.82
2022-10-11T04:42:27.382Z,91.54
2022-10-11T04:45:07.001Z,93.37
2022-10-11T04:47:44.363Z,92.72
2022-10-11T04:50:22.768Z,94.40
2022-10-11T04:53:00.417Z,94.87
2022-10-11T04:55:38.969Z,95.21
2022-10-11T04:58:17.690Z,96.02
2022-10-11T05:00:56.350Z,92.75
2022-10-11T05:03:40.077Z,93.40
2022-10-11T05:06:18.601Z,92.79
2022-10-11T05:08:57.229Z,90.92
2022-10-11T05:11:35.648Z,93.77
2022-10-11T05:14:14.370Z,93.29
2022-10-11T05:16:53.081Z,94.73
2022-10-11T05:19:31.594Z,90.38
2022-10-11T05:22:10.307Z,91.13
2022-10-11T05:24:50.943Z,88.19
2022-10-11T05:27:29.575Z,88.80
2022-10-11T05:30:09.233Z,89.16
2022-10-11T05:32:46.503Z,90.03
2022-10-11T05:35:26.987Z,90.57
2022-10-11T05:38:05.708Z,91.95
2022-10-11T05:40:44.154Z,96.82
2022-10-11T05:43:22.870Z,95.26
2022-10-11T05:46:09.042Z,96.01
2022-10-11T05:48:47.966Z,98.44
2022-10-11T05:51:28.873Z,100.00
2022-10-11T05:54:08.733Z,100.00
2022-10-11T05:56:47.251Z,100.00
2022-10-11T05:59:27.835Z,98.92
2022-10-11T06:02:06.646Z,100.00
2022-10-11T06:04:44.622Z,97.13
2022-10-11T06:07:23.504Z,98.13
2022-10-11T06:10:01.855Z,96.94
2022-10-11T06:12:40.329Z,97.86
2022-10-11T06:15:18.960Z,93.60
2022-10-11T06:18:05.908Z,94.07
2022-10-11T06:20:43.696Z,96.19
2022-10-11T06:23:22.452Z,97.09
2022-10-11T06:26:07.218Z,99.00
2022-10-11T06:28:46.166Z,100.00
2022-10-11T06:31:25.450Z,94.67
2022-10-11T06:34:05.084Z,98.34
2022-10-11T06:36:44.066Z,99.26
2022-10-11T06:39:25.833Z,100.00
2022-10-11T06:42:04.247Z,100.00
2022-10-11T06:44:41.462Z,100.00
2022-10-11T06:47:21.872Z,100.00
2022-10-11T06:50:00.681Z,100.00
2022-10-11T06:52:39.090Z,100.00
2022-10-11T06:55:19.335Z,100.00
2022-10-11T06:57:59.104Z,100.00
2022-10-11T07:00:40.884Z,100.00
2022-10-11T07:03:21.829Z,100.00
2022-10-11T07:08:57.505Z,100.00
2022-10-11T07:11:36.021Z,100.00
2022-10-11T07:14:14.307Z,100.00
2022-10-11T07:16:52.622Z,100.00
2022-10-11T07:19:31.958Z,100.00
2022-10-11T07:22:10.182Z,100.00
2022-10-11T07:24:51.423Z,95.74
2022-10-11T07:27:31.640Z,96.87
2022-10-11T07:30:12.059Z,93.69
2022-10-11T07:32:49.509Z,94.22
2022-10-11T07:35:27.963Z,90.96
2022-10-11T07:38:07.566Z,91.70
2022-10-11T07:40:46.812Z,87.22
2022-10-11T07:43:25.600Z,88.02
2022-10-11T07:46:05.578Z,89.46
2022-10-11T07:48:44.711Z,84.81
2022-10-11T07:51:24.478Z,83.72
2022-10-11T07:54:07.459Z,84.93
2022-10-11T07:56:45.422Z,87.28
2022-10-11T07:59:25.086Z,87.75
2022-10-11T08:02:04.465Z,83.68
2022-10-11T08:04:45.653Z,83.78
2022-10-11T08:07:33.942Z,82.49
2022-10-11T08:10:12.610Z,84.46
2022-10-11T08:12:51.810Z,79.22
2022-10-11T08:15:30.508Z,79.92
2022-10-11T08:18:08.780Z,78.16
2022-10-11T08:20:47.361Z,79.06
2022-10-11T08:23:26.653Z,79.71
2022-10-11T08:26:04.845Z,81.67
2022-10-11T08:28:45.865Z,76.07
2022-10-11T08:31:28.419Z,76.05
2022-10-11T08:34:07.099Z,76.97
2022-10-11T08:36:48.590Z,81.76
2022-10-11T08:39:26.529Z,81.23
2022-10-11T08:42:27.933Z,82.63
2022-10-11T08:45:11.457Z,83.10
2022-10-11T08:47:51.251Z,81.39
2022-10-11T08:50:30.081Z,82.16
2022-10-11T08:53:14.591Z,78.36
2022-10-11T08:55:53.424Z,78.84
2022-10-11T08:58:38.421Z,73.65
2022-10-11T09:01:18.797Z,74.48
2022-10-11T09:04:00.055Z,78.44
2022-10-11T09:06:37.400Z,82.06
2022-10-11T09:09:22.562Z,80.74
2022-10-11T09:12:01.079Z,80.89
2022-10-11T09:14:45.455Z,73.10
2022-10-11T09:17:42.106Z,73.39
2022-10-11T09:20:39.961Z,75.16
2022-10-11T09:23:30.785Z,74.60
2022-10-11T09:26:19.008Z,75.66
2022-10-11T09:29:05.711Z,73.52
2022-10-11T09:31:47.790Z,69.74
2022-10-11T09:34:39.361Z,69.74
2022-10-11T09:37:31.945Z,70.63
2022-10-11T09:40:29.069Z,75.24
2022-10-11T09:43:15.653Z,71.61
2022-10-11T09:46:03.267Z,68.73
2022-10-11T09:48:49.606Z,67.81
2022-10-11T09:51:42.489Z,64.29
2022-10-11T09:54:42.846Z,64.90
2022-10-11T09:57:33.401Z,62.17
2022-10-11T10:00:27.741Z,60.14
2022-10-11T10:03:14.180Z,61.31
2022-10-11T10:06:04.935Z,59.20
2022-10-11T10:08:54.032Z,58.63
2022-10-11T10:11:42.372Z,54.59
2022-10-11T10:14:33.576Z,53.77
2022-10-11T10:17:19.740Z,53.02
2022-10-11T10:20:07.482Z,55.29
2022-10-11T10:22:53.754Z,53.28
2022-10-11T10:25:45.110Z,53.52
2022-10-11T10:28:31.363Z,53.95
2022-10-11T10:31:21.001Z,59.65
2022-10-11T10:34:18.008Z,56.64
2022-10-11T10:37:08.473Z,58.53
2022-10-11T10:40:10.155Z,56.21
2022-10-11T10:42:56.799Z,51.67
2022-10-11T10:45:49.675Z,52.46
2022-10-11T10:49:18.820Z,56.62
2022-10-11T10:51:53.822Z,55.54
2022-10-11T10:54:55.534Z,53.12
2022-10-11T10:57:42.047Z,55.95
2022-10-11T11:00:31.831Z,58.53
2022-10-11T11:03:21.044Z,56.58
2022-10-11T11:06:10.315Z,55.76
2022-10-11T11:09:02.090Z,55.63
2022-10-11T11:11:50.349Z,55.47
2022-10-11T11:14:52.189Z,56.48
2022-10-11T11:17:47.513Z,57.56
2022-10-11T11:20:59.293Z,56.66
2022-10-11T11:24:00.195Z,60.77
2022-10-11T11:27:14.983Z,61.57
2022-10-11T11:30:06.467Z,61.50
2022-10-11T11:32:52.276Z,60.28
2022-10-11T11:35:40.907Z,57.17
2022-10-11T11:38:36.625Z,57.21
2022-10-11T11:41:26.435Z,56.18
2022-10-11T11:44:50.171Z,57.34
2022-10-11T11:47:39.108Z,57.65
2022-10-11T11:50:29.609Z,55.54
2022-10-11T11:53:30.046Z,55.26
2022-10-11T11:56:20.334Z,54.81
2022-10-11T11:59:26.109Z,53.73
2022-10-11T12:02:12.203Z,58.22
2022-10-11T12:05:01.087Z,60.20
2022-10-11T12:07:48.404Z,63.21
2022-10-11T12:10:36.330Z,65.19
2022-10-11T12:13:31.177Z,64.81
2022-10-11T12:16:21.001Z,65.05
2022-10-11T12:19:14.442Z,62.67
2022-10-11T12:22:40.015Z,65.39
2022-10-11T12:25:34.725Z,63.94
2022-10-11T12:28:37.303Z,59.94
2022-10-11T12:31:26.127Z,59.23
2022-10-11T12:37:19.731Z,60.60
2022-10-11T12:40:30.132Z,57.82
2022-10-11T12:43:18.343Z,55.51
2022-10-11T12:46:26.057Z,55.43
2022-10-11T12:49:25.556Z,54.97
2022-10-11T12:52:16.363Z,53.35
2022-10-11T12:55:24.765Z,53.23
2022-10-11T12:58:30.971Z,52.64
2022-10-11T13:01:19.361Z,58.84
2022-10-11T13:04:12.208Z,59.41
2022-10-11T13:07:08.039Z,64.19
2022-10-11T13:10:03.058Z,65.02
2022-10-11T13:12:51.398Z,65.05
2022-10-11T13:15:42.451Z,64.52
2022-10-11T13:18:29.090Z,61.25
2022-10-11T13:21:28.043Z,60.73
2022-10-11T13:24:18.253Z,58.76
2022-10-11T13:27:06.355Z,57.38
2022-10-11T13:29:56.332Z,58.35
2022-10-11T13:32:44.001Z,59.13
2022-10-11T13:35:33.789Z,56.49
2022-10-11T13:38:32.068Z,54.49
2022-10-11T13:41:21.043Z,55.27
2022-10-11T13:44:09.204Z,54.09
2022-10-11T13:46:56.025Z,52.86
2022-10-11T13:50:01.097Z,56.09
2022-10-11T13:52:55.579Z,56.06
2022-10-11T13:55:42.622Z,55.46
2022-10-11T13:58:49.178Z,54.49
2022-10-11T14:01:38.118Z,55.63
2022-10-11T14:04:31.278Z,55.85
2022-10-11T14:07:31.198Z,55.94
2022-10-11T14:10:25.002Z,58.85
2022-10-11T14:13:36.087Z,59.17
2022-10-11T14:16:24.377Z,58.30
2022-10-11T14:19:12.329Z,58.31
2022-10-11T14:22:02.158Z,58.79
2022-10-11T14:24:52.095Z,58.50
2022-10-11T14:27:51.018Z,59.81
2022-10-11T14:31:19.021Z,57.01
2022-10-11T14:34:10.080Z,57.24
2022-10-11T14:36:57.381Z,55.57
2022-10-11T14:39:52.045Z,55.76
2022-10-11T14:42:41.004Z,55.96
2022-10-11T14:45:32.015Z,57.25
2022-10-11T14:48:50.316Z,57.68
2022-10-11T14:51:34.089Z,59.04
2022-10-11T14:54:23.591Z,60.06
2022-10-11T14:57:16.321Z,60.87
2022-10-11T15:03:14.076Z,61.63
2022-10-11T15:06:03.533Z,60.14
2022-10-11T15:08:58.667Z,62.22
2022-10-11T15:11:48.912Z,62.23
2022-10-11T15:14:36.284Z,59.45
2022-10-11T15:20:28.666Z,64.87
2022-10-11T15:23:29.165Z,67.15
2022-10-11T15:26:22.254Z,73.37
2022-10-11T15:29:18.981Z,70.12
2022-10-11T15:32:09.043Z,69.98
2022-10-11T15:34:56.741Z,68.94
2022-10-11T15:37:45.967Z,67.45
2022-10-11T15:40:35.540Z,66.69
2022-10-11T15:43:24.898Z,67.13
2022-10-11T15:46:18.021Z,66.70
2022-10-11T15:49:11.209Z,66.69
2022-10-11T15:51:59.045Z,62.73
2022-10-11T15:54:47.707Z,63.04
2022-10-11T15:57:39.044Z,63.34
2022-10-11T16:00:29.479Z,63.78
2022-10-11T16:03:20.019Z,63.97
2022-10-11T16:09:07.069Z,67.41
2022-10-11T16:12:00.008Z,68.33
2022-10-11T16:14:51.735Z,69.25
2022-10-11T16:17:49.557Z,77.50
2022-10-11T16:20:40.638Z,85.62
2022-10-11T16:23:28.244Z,90.53
2022-10-11T16:26:18.169Z,83.74
2022-10-11T16:29:22.328Z,80.68
2022-10-11T16:32:17.207Z,77.80
2022-10-11T16:35:13.121Z,78.63
2022-10-11T16:38:06.049Z,79.36
2022-10-11T16:40:53.441Z,81.01
2022-10-11T16:43:50.782Z,80.33
2022-10-11T16:46:38.525Z,81.14
2022-10-11T16:49:32.962Z,81.93
2022-10-11T16:52:25.075Z,81.48
2022-10-11T16:55:11.633Z,81.17
2022-10-11T16:58:00.676Z,81.25
2022-10-11T17:00:50.756Z,82.18
2022-10-11T17:03:42.253Z,83.31
2022-10-11T17:06:40.964Z,83.77
2022-10-11T17:09:29.722Z,83.03
2022-10-11T17:12:25.102Z,83.32
2022-10-11T17:15:18.062Z,91.52
2022-10-11T17:18:12.997Z,86.76
2022-10-11T17:21:06.595Z,85.04
2022-10-11T17:23:56.047Z,83.41
2022-10-11T17:26:52.137Z,83.23
2022-10-11T17:29:45.329Z,84.87
2022-10-11T17:32:35.086Z,88.20
2022-10-11T17:35:25.622Z,87.65
2022-10-11T17:38:18.039Z,88.17
2022-10-11T17:41:08.286Z,86.08
2022-10-11T17:43:57.306Z,87.78
2022-10-11T17:49:49.113Z,86.11
2022-10-11T17:52:41.044Z,86.35
2022-10-11T17:55:29.460Z,86.46
2022-10-11T17:58:19.045Z,86.31
2022-10-11T18:01:18.092Z,85.65
2022-10-11T18:04:17.041Z,86.24
2022-10-11T18:07:21.378Z,86.89
2022-10-11T18:10:17.875Z,86.76
2022-10-11T18:13:08.515Z,86.41
2022-10-11T18:18:58.097Z,84.51
2022-10-11T18:24:41.059Z,86.44
2022-10-11T18:27:36.313Z,85.84
2022-10-11T18:30:25.917Z,84.26
2022-10-11T18:33:15.019Z,83.57
2022-10-11T18:36:04.221Z,84.60
2022-10-11T18:39:03.049Z,85.49
2022-10-11T18:41:50.057Z,88.36
2022-10-11T18:44:46.073Z,90.92
2022-10-11T18:47:33.244Z,90.78
2022-10-11T18:50:23.996Z,87.97
2022-10-11T18:53:24.093Z,85.09
2022-10-11T18:56:24.088Z,85.65
2022-10-11T18:59:17.605Z,85.91
2022-10-11T19:02:08.042Z,85.33
2022-10-11T19:05:00.690Z,85.68
2022-10-11T19:07:49.419Z,84.06
2022-10-11T19:10:43.150Z,84.07
2022-10-11T19:13:35.562Z,84.33
2022-10-11T19:16:36.136Z,84.49
2022-10-11T19:19:28.543Z,83.89
2022-10-11T19:22:24.112Z,84.95
2022-10-11T19:25:15.056Z,85.02
2022-10-11T19:28:03.809Z,88.34
2022-10-11T19:30:51.789Z,88.59
2022-10-11T19:33:42.274Z,87.68
2022-10-11T19:36:36.700Z,86.85
2022-10-11T19:39:25.650Z,88.18
2022-10-11T19:42:13.573Z,88.94
2022-10-11T19:45:03.089Z,90.18
2022-10-11T19:47:53.297Z,91.66
2022-10-11T19:50:40.061Z,92.25
2022-10-11T19:53:32.097Z,90.07
2022-10-11T19:56:27.069Z,87.43
2022-10-11T19:59:21.987Z,93.05
2022-10-11T20:02:11.061Z,91.88
2022-10-11T20:04:58.026Z,100.00
2022-10-11T20:07:49.985Z,98.58
2022-10-11T20:10:37.852Z,98.18
2022-10-11T20:13:24.658Z,95.39
2022-10-11T20:16:15.126Z,100.00
2022-10-11T20:19:02.175Z,100.00
2022-10-11T20:21:49.373Z,100.00
2022-10-11T20:24:37.340Z,97.18
2022-10-11T20:27:28.249Z,92.50
2022-10-11T20:30:21.038Z,90.76
2022-10-11T20:33:12.379Z,90.43
2022-10-11T20:35:58.911Z,90.52
2022-10-11T20:38:46.485Z,90.58
2022-10-11T20:41:33.686Z,91.12
2022-10-11T20:44:20.427Z,91.79
2022-10-11T20:47:10.057Z,95.53
2022-10-11T20:49:57.074Z,100.00
2022-10-11T20:52:44.349Z,100.00
2022-10-11T20:55:36.015Z,100.00
2022-10-11T20:58:22.199Z,100.00
2022-10-11T21:01:10.042Z,100.00
2022-10-11T21:04:00.008Z,98.31
2022-10-11T21:06:49.014Z,98.27
2022-10-11T21:09:35.979Z,98.67
2022-10-11T21:12:22.994Z,96.03
2022-10-11T21:15:11.351Z,95.23
2022-10-11T21:17:58.170Z,93.74
2022-10-11T21:20:44.794Z,92.93
2022-10-11T21:23:31.410Z,96.58
2022-10-11T21:26:18.415Z,95.44
2022-10-11T21:29:05.003Z,100.00
2022-10-11T21:31:51.116Z,100.00
2022-10-11T21:34:43.633Z,100.00
2022-10-11T21:37:30.159Z,100.00
2022-10-11T21:40:16.651Z,100.00
2022-10-11T21:43:03.194Z,100.00
2022-10-11T21:45:54.201Z,100.00
2022-10-11T21:48:41.690Z,98.83
2022-10-11T21:51:32.161Z,98.16
2022-10-11T21:54:19.207Z,100.00
2022-10-11T21:57:06.490Z,96.55
2022-10-11T21:59:52.783Z,96.28
2022-10-11T22:02:39.302Z,96.31
2022-10-11T22:05:27.059Z,96.51
2022-10-11T22:08:13.891Z,97.00
2022-10-11T22:11:00.989Z,96.52
2022-10-11T22:13:49.463Z,97.28
2022-10-11T22:16:36.300Z,97.53
2022-10-11T22:19:23.327Z,97.33
2022-10-11T22:22:10.555Z,96.04
2022-10-11T22:24:56.542Z,96.15
2022-10-11T22:27:42.774Z,95.78
2022-10-11T22:30:29.866Z,95.93
2022-10-11T22:33:17.078Z,96.28
2022-10-11T22:36:04.394Z,95.44
2022-10-11T22:38:51.924Z,95.55
2022-10-11T22:41:37.944Z,96.88
2022-10-11T22:44:24.041Z,96.77
2022-10-11T22:47:09.860Z,98.75
2022-10-11T22:49:56.321Z,97.84
2022-10-11T22:52:43.374Z,97.39
2022-10-11T22:55:29.752Z,96.15
2022-10-11T22:58:17.157Z,94.84
2022-10-11T23:01:08.127Z,94.53
2022-10-11T23:03:54.023Z,95.45
2022-10-11T23:06:42.373Z,95.66
2022-10-11T23:09:29.008Z,95.60
2022-10-11T23:12:15.450Z,95.23
2022-10-11T23:15:01.424Z,96.20
2022-10-11T23:17:48.227Z,96.79
2022-10-11T23:20:34.155Z,97.67
2022-10-11T23:23:21.149Z,97.70
2022-10-11T23:26:09.308Z,100.00
2022-10-11T23:28:55.671Z,100.00
2022-10-11T23:31:41.544Z,100.00
2022-10-11T23:34:28.096Z,99.34
2022-10-11T23:37:13.998Z,100.00
2022-10-11T23:40:00.366Z,100.00
2022-10-11T23:42:46.420Z,100.00
2022-10-11T23:45:32.465Z,100.00
2022-10-11T23:48:18.417Z,100.00
2022-10-11T23:51:04.966Z,100.00
2022-10-11T23:53:50.691Z,100.00
2022-10-11T23:56:37.371Z,100.00
2022-10-11T23:59:23.369Z,100.00
